sensor_id;sensor_type;location;lat;lon;timestamp;pressure;altitude;pressure_sealevel;temperature;humidity
77410;BME280;66481;51.332;22.804;2023-12-14T00:01:26;98469.03;;;0.51;100.00
77410;BME280;66481;51.332;22.804;2023-12-14T00:05:27;98474.06;;;0.54;100.00
77410;BME280;66481;51.332;22.804;2023-12-14T00:09:28;98487.91;;;0.54;100.00
77410;BME280;66481;51.332;22.804;2023-12-14T00:13:29;98497.25;;;0.59;100.00
77410;BME280;66481;51.332;22.804;2023-12-14T00:17:30;98497.25;;;0.59;100.00
77410;BME280;66481;51.332;22.804;2023-12-14T00:21:31;98490.53;;;0.54;100.00
77410;BME280;66481;51.332;22.804;2023-12-14T00:25:33;98494.81;;;0.55;100.00
77410;BME280;66481;51.332;22.804;2023-12-14T00:29:34;98487.69;;;0.59;100.00
77410;BME280;66481;51.332;22.804;2023-12-14T00:33:35;98493.66;;;0.61;100.00
77410;BME280;66481;51.332;22.804;2023-12-14T00:37:36;98501.84;;;0.53;100.00
77410;BME280;66481;51.332;22.804;2023-12-14T00:41:37;98504.69;;;0.49;100.00
77410;BME280;66481;51.332;22.804;2023-12-14T00:45:38;98516.78;;;0.50;100.00
77410;BME280;66481;51.332;22.804;2023-12-14T00:49:39;98534.75;;;0.54;100.00
77410;BME280;66481;51.332;22.804;2023-12-14T00:53:40;98530.41;;;0.55;100.00
77410;BME280;66481;51.332;22.804;2023-12-14T00:57:41;98540.81;;;0.55;100.00
77410;BME280;66481;51.332;22.804;2023-12-14T01:01:42;98553.59;;;0.60;100.00
77410;BME280;66481;51.332;22.804;2023-12-14T01:05:44;98546.09;;;0.53;100.00
77410;BME280;66481;51.332;22.804;2023-12-14T01:09:45;98551.81;;;0.60;100.00
77410;BME280;66481;51.332;22.804;2023-12-14T01:13:46;98550.84;;;0.63;100.00
77410;BME280;66481;51.332;22.804;2023-12-14T01:17:47;98542.56;;;0.54;100.00
77410;BME280;66481;51.332;22.804;2023-12-14T01:21:48;98545.19;;;0.54;100.00
77410;BME280;66481;51.332;22.804;2023-12-14T01:25:48;98551.91;;;0.59;100.00
77410;BME280;66481;51.332;22.804;2023-12-14T01:29:50;98548.38;;;0.60;100.00
77410;BME280;66481;51.332;22.804;2023-12-14T01:33:51;98555.34;;;0.59;100.00
77410;BME280;66481;51.332;22.804;2023-12-14T01:37:52;98550.22;;;0.58;100.00
77410;BME280;66481;51.332;22.804;2023-12-14T01:41:52;98545.63;;;0.63;100.00
77410;BME280;66481;51.332;22.804;2023-12-14T01:45:53;98537.22;;;0.58;100.00
77410;BME280;66481;51.332;22.804;2023-12-14T01:49:54;98535.69;;;0.53;100.00
77410;BME280;66481;51.332;22.804;2023-12-14T01:53:56;98539.97;;;0.54;100.00
77410;BME280;66481;51.332;22.804;2023-12-14T01:57:57;98555.44;;;0.58;100.00
77410;BME280;66481;51.332;22.804;2023-12-14T02:01:58;98552.84;;;0.58;100.00
77410;BME280;66481;51.332;22.804;2023-12-14T02:06:00;98551.13;;;0.56;100.00
77410;BME280;66481;51.332;22.804;2023-12-14T02:10:01;98559.09;;;0.53;100.00
77410;BME280;66481;51.332;22.804;2023-12-14T02:14:06;98563.94;;;0.61;100.00
77410;BME280;66481;51.332;22.804;2023-12-14T02:18:07;98560.03;;;0.52;100.00
77410;BME280;66481;51.332;22.804;2023-12-14T02:22:09;98572.50;;;0.63;100.00
77410;BME280;66481;51.332;22.804;2023-12-14T02:26:11;98581.06;;;0.65;100.00
77410;BME280;66481;51.332;22.804;2023-12-14T02:30:12;98570.03;;;0.60;100.00
77410;BME280;66481;51.332;22.804;2023-12-14T02:34:13;98582.75;;;0.66;100.00
77410;BME280;66481;51.332;22.804;2023-12-14T02:38:14;98571.88;;;0.58;100.00
77410;BME280;66481;51.332;22.804;2023-12-14T02:42:15;98585.44;;;0.65;100.00
77410;BME280;66481;51.332;22.804;2023-12-14T02:46:16;98591.47;;;0.65;100.00
77410;BME280;66481;51.332;22.804;2023-12-14T02:50:19;98592.22;;;0.67;100.00
77410;BME280;66481;51.332;22.804;2023-12-14T02:54:20;98594.94;;;0.66;100.00
77410;BME280;66481;51.332;22.804;2023-12-14T02:58:21;98604.63;;;0.62;100.00
77410;BME280;66481;51.332;22.804;2023-12-14T03:02:22;98602.44;;;0.54;100.00
77410;BME280;66481;51.332;22.804;2023-12-14T03:06:23;98602.50;;;0.53;100.00
77410;BME280;66481;51.332;22.804;2023-12-14T03:10:23;98614.69;;;0.52;100.00
77410;BME280;66481;51.332;22.804;2023-12-14T03:14:24;98615.44;;;0.54;100.00
77410;BME280;66481;51.332;22.804;2023-12-14T03:18:25;98620.13;;;0.48;100.00
77410;BME280;66481;51.332;22.804;2023-12-14T03:22:26;98624.16;;;0.53;100.00
77410;BME280;66481;51.332;22.804;2023-12-14T03:26:27;98629.69;;;0.47;100.00
77410;BME280;66481;51.332;22.804;2023-12-14T03:30:28;98634.75;;;0.50;100.00
77410;BME280;66481;51.332;22.804;2023-12-14T03:34:29;98631.06;;;0.54;100.00
77410;BME280;66481;51.332;22.804;2023-12-14T03:38:30;98634.56;;;0.53;100.00
77410;BME280;66481;51.332;22.804;2023-12-14T03:42:31;98638.03;;;0.54;100.00
77410;BME280;66481;51.332;22.804;2023-12-14T03:46:32;98645.84;;;0.54;100.00
77410;BME280;66481;51.332;22.804;2023-12-14T03:50:34;98653.47;;;0.57;100.00
77410;BME280;66481;51.332;22.804;2023-12-14T03:54:35;98664.75;;;0.58;100.00
77410;BME280;66481;51.332;22.804;2023-12-14T03:58:36;98673.31;;;0.60;100.00
77410;BME280;66481;51.332;22.804;2023-12-14T04:02:40;98681.66;;;0.66;100.00
77410;BME280;66481;51.332;22.804;2023-12-14T04:06:41;98687.84;;;0.64;100.00
77410;BME280;66481;51.332;22.804;2023-12-14T04:10:42;98680.72;;;0.67;100.00
77410;BME280;66481;51.332;22.804;2023-12-14T04:14:43;98693.06;;;0.64;100.00
77410;BME280;66481;51.332;22.804;2023-12-14T04:18:45;98683.34;;;0.67;100.00
77410;BME280;66481;51.332;22.804;2023-12-14T04:22:47;98679.22;;;0.63;100.00
77410;BME280;66481;51.332;22.804;2023-12-14T04:26:49;98684.13;;;0.69;100.00
77410;BME280;66481;51.332;22.804;2023-12-14T04:30:50;98693.06;;;0.64;100.00
77410;BME280;66481;51.332;22.804;2023-12-14T04:34:51;98688.03;;;0.61;100.00
77410;BME280;66481;51.332;22.804;2023-12-14T04:38:52;98688.72;;;0.64;100.00
77410;BME280;66481;51.332;22.804;2023-12-14T04:42:54;98690.72;;;0.59;100.00
77410;BME280;66481;51.332;22.804;2023-12-14T04:46:54;98700.81;;;0.65;100.00
77410;BME280;66481;51.332;22.804;2023-12-14T04:50:55;98704.16;;;0.67;100.00
77410;BME280;66481;51.332;22.804;2023-12-14T04:54:57;98706.06;;;0.64;100.00
77410;BME280;66481;51.332;22.804;2023-12-14T04:58:58;98717.28;;;0.66;100.00
77410;BME280;66481;51.332;22.804;2023-12-14T05:02:59;98703.78;;;0.58;100.00
77410;BME280;66481;51.332;22.804;2023-12-14T05:07:00;98723.63;;;0.60;100.00
77410;BME280;66481;51.332;22.804;2023-12-14T05:11:01;98734.03;;;0.60;100.00
77410;BME280;66481;51.332;22.804;2023-12-14T05:15:04;98736.63;;;0.60;100.00
77410;BME280;66481;51.332;22.804;2023-12-14T05:19:05;98749.72;;;0.59;100.00
77410;BME280;66481;51.332;22.804;2023-12-14T05:23:06;98744.44;;;0.60;100.00
77410;BME280;66481;51.332;22.804;2023-12-14T05:27:07;98755.84;;;0.58;100.00
77410;BME280;66481;51.332;22.804;2023-12-14T05:31:08;98751.47;;;0.58;100.00
77410;BME280;66481;51.332;22.804;2023-12-14T05:35:09;98748.81;;;0.60;100.00
77410;BME280;66481;51.332;22.804;2023-12-14T05:39:10;98763.59;;;0.59;100.00
77410;BME280;66481;51.332;22.804;2023-12-14T05:43:11;98768.94;;;0.56;100.00
77410;BME280;66481;51.332;22.804;2023-12-14T05:47:12;98769.00;;;0.54;100.00
77410;BME280;66481;51.332;22.804;2023-12-14T05:51:28;98779.34;;;0.56;100.00
77410;BME280;66481;51.332;22.804;2023-12-14T05:55:30;98778.53;;;0.55;100.00
77410;BME280;66481;51.332;22.804;2023-12-14T05:59:31;98795.44;;;0.64;100.00
77410;BME280;66481;51.332;22.804;2023-12-14T06:03:33;98790.59;;;0.56;100.00
77410;BME280;66481;51.332;22.804;2023-12-14T06:07:34;98798.13;;;0.63;100.00
77410;BME280;66481;51.332;22.804;2023-12-14T06:11:36;98790.59;;;0.56;100.00
77410;BME280;66481;51.332;22.804;2023-12-14T06:15:38;98805.25;;;0.59;100.00
77410;BME280;66481;51.332;22.804;2023-12-14T06:19:39;98820.22;;;0.54;100.00
77410;BME280;66481;51.332;22.804;2023-12-14T06:23:40;98820.31;;;0.52;100.00
77410;BME280;66481;51.332;22.804;2023-12-14T06:27:42;98826.34;;;0.53;100.00
77410;BME280;66481;51.332;22.804;2023-12-14T06:31:45;98826.97;;;0.58;100.00
77410;BME280;66481;51.332;22.804;2023-12-14T06:35:46;98836.53;;;0.58;100.00
77410;BME280;66481;51.332;22.804;2023-12-14T06:39:47;98836.63;;;0.56;100.00
77410;BME280;66481;51.332;22.804;2023-12-14T06:43:49;98848.63;;;0.59;100.00
77410;BME280;66481;51.332;22.804;2023-12-14T06:47:50;98847.78;;;0.58;100.00
77410;BME280;66481;51.332;22.804;2023-12-14T06:51:51;98858.19;;;0.58;100.00
77410;BME280;66481;51.332;22.804;2023-12-14T06:55:52;98860.59;;;0.63;100.00
77410;BME280;66481;51.332;22.804;2023-12-14T06:59:53;98861.63;;;0.59;100.00
77410;BME280;66481;51.332;22.804;2023-12-14T07:03:54;98864.19;;;0.60;100.00
77410;BME280;66481;51.332;22.804;2023-12-14T07:07:55;98883.97;;;0.64;100.00
77410;BME280;66481;51.332;22.804;2023-12-14T07:11:57;98877.25;;;0.59;100.00
77410;BME280;66481;51.332;22.804;2023-12-14T07:15:59;98901.88;;;0.70;100.00
77410;BME280;66481;51.332;22.804;2023-12-14T07:20:00;98888.78;;;0.72;100.00
77410;BME280;66481;51.332;22.804;2023-12-14T07:24:01;98895.84;;;0.70;100.00
77410;BME280;66481;51.332;22.804;2023-12-14T07:28:02;98899.28;;;0.70;100.00
77410;BME280;66481;51.332;22.804;2023-12-14T07:32:06;98905.88;;;0.78;100.00
77410;BME280;66481;51.332;22.804;2023-12-14T07:36:07;98910.38;;;0.74;100.00
77410;BME280;66481;51.332;22.804;2023-12-14T07:40:08;98911.16;;;0.76;100.00
77410;BME280;66481;51.332;22.804;2023-12-14T07:44:10;98916.38;;;0.76;100.00
77410;BME280;66481;51.332;22.804;2023-12-14T07:48:11;98922.91;;;0.85;100.00
77410;BME280;66481;51.332;22.804;2023-12-14T07:52:12;98925.94;;;0.75;100.00
77410;BME280;66481;51.332;22.804;2023-12-14T07:56:14;98927.59;;;0.78;100.00
77410;BME280;66481;51.332;22.804;2023-12-14T08:00:15;98930.81;;;0.83;100.00
77410;BME280;66481;51.332;22.804;2023-12-14T08:04:16;98932.56;;;0.83;100.00
77410;BME280;66481;51.332;22.804;2023-12-14T08:08:17;98937.00;;;0.81;100.00
77410;BME280;66481;51.332;22.804;2023-12-14T08:12:18;98947.13;;;0.87;100.00
77410;BME280;66481;51.332;22.804;2023-12-14T08:16:19;98949.75;;;0.87;100.00
77410;BME280;66481;51.332;22.804;2023-12-14T08:20:21;98947.22;;;0.85;100.00
77410;BME280;66481;51.332;22.804;2023-12-14T08:24:22;98954.25;;;0.83;100.00
77410;BME280;66481;51.332;22.804;2023-12-14T08:28:23;98958.75;;;0.80;100.00
77410;BME280;66481;51.332;22.804;2023-12-14T08:32:24;98964.44;;;0.88;100.00
77410;BME280;66481;51.332;22.804;2023-12-14T08:36:25;98980.06;;;0.88;100.00
77410;BME280;66481;51.332;22.804;2023-12-14T08:40:26;98981.13;;;0.84;100.00
77410;BME280;66481;51.332;22.804;2023-12-14T08:44:27;98992.38;;;0.84;100.00
77410;BME280;66481;51.332;22.804;2023-12-14T08:48:28;98990.34;;;0.91;100.00
77410;BME280;66481;51.332;22.804;2023-12-14T08:52:29;98990.47;;;0.88;100.00
77410;BME280;66481;51.332;22.804;2023-12-14T08:56:30;99002.47;;;0.92;100.00
77410;BME280;66481;51.332;22.804;2023-12-14T09:00:31;99023.72;;;1.02;100.00
77410;BME280;66481;51.332;22.804;2023-12-14T09:04:32;99025.28;;;1.06;100.00
77410;BME280;66481;51.332;22.804;2023-12-14T09:08:36;99019.06;;;1.08;100.00
77410;BME280;66481;51.332;22.804;2023-12-14T09:12:37;99020.53;;;1.14;100.00
77410;BME280;66481;51.332;22.804;2023-12-14T09:16:38;99031.59;;;1.19;100.00
77410;BME280;66481;51.332;22.804;2023-12-14T09:20:39;99023.56;;;1.24;100.00
77410;BME280;66481;51.332;22.804;2023-12-14T09:24:41;99023.38;;;1.28;100.00
77410;BME280;66481;51.332;22.804;2023-12-14T09:28:43;99016.25;;;1.32;100.00
77410;BME280;66481;51.332;22.804;2023-12-14T09:32:44;99016.88;;;1.37;100.00
77410;BME280;66481;51.332;22.804;2023-12-14T09:36:45;99025.31;;;1.42;100.00
77410;BME280;66481;51.332;22.804;2023-12-14T09:40:46;99019.69;;;1.33;100.00
77410;BME280;66481;51.332;22.804;2023-12-14T09:44:48;99019.69;;;1.33;100.00
77410;BME280;66481;51.332;22.804;2023-12-14T09:48:50;99017.16;;;1.31;100.00
77410;BME280;66481;51.332;22.804;2023-12-14T09:52:52;99021.31;;;1.35;100.00
77410;BME280;66481;51.332;22.804;2023-12-14T09:56:53;99019.41;;;1.39;100.00
77410;BME280;66481;51.332;22.804;2023-12-14T10:00:54;99027.47;;;1.52;100.00
77410;BME280;66481;51.332;22.804;2023-12-14T10:04:57;99013.88;;;1.45;100.00
77410;BME280;66481;51.332;22.804;2023-12-14T10:08:58;99013.06;;;1.44;100.00
77410;BME280;66481;51.332;22.804;2023-12-14T10:12:59;99016.50;;;1.45;100.00
77410;BME280;66481;51.332;22.804;2023-12-14T10:17:19;99012.03;;;1.47;100.00
77410;BME280;66481;51.332;22.804;2023-12-14T10:21:22;99008.81;;;1.42;100.00
77410;BME280;66481;51.332;22.804;2023-12-14T10:25:23;99001.72;;;1.45;100.00
77410;BME280;66481;51.332;22.804;2023-12-14T10:29:24;99011.91;;;1.50;100.00
77410;BME280;66481;51.332;22.804;2023-12-14T10:33:25;99012.91;;;1.47;100.00
77410;BME280;66481;51.332;22.804;2023-12-14T10:37:27;99012.97;;;1.46;100.00
77410;BME280;66481;51.332;22.804;2023-12-14T10:41:31;99005.78;;;1.51;100.00
77410;BME280;66481;51.332;22.804;2023-12-14T10:45:33;99015.53;;;1.47;100.00
77410;BME280;66481;51.332;22.804;2023-12-14T10:49:34;99010.94;;;1.53;100.00
77410;BME280;66481;51.332;22.804;2023-12-14T10:53:36;99015.91;;;1.57;100.00
77410;BME280;66481;51.332;22.804;2023-12-14T10:57:38;99018.81;;;1.51;100.00
77410;BME280;66481;51.332;22.804;2023-12-14T11:01:39;99006.75;;;1.48;100.00
77410;BME280;66481;51.332;22.804;2023-12-14T11:05:41;99012.47;;;1.57;100.00
77410;BME280;66481;51.332;22.804;2023-12-14T11:09:44;99010.63;;;1.59;100.00
77410;BME280;66481;51.332;22.804;2023-12-14T11:13:52;99006.16;;;1.61;100.00
77410;BME280;66481;51.332;22.804;2023-12-14T11:22:11;99000.16;;;1.41;100.00
77410;BME280;66481;51.332;22.804;2023-12-14T11:26:21;99014.66;;;1.47;100.00
77410;BME280;66481;51.332;22.804;2023-12-14T11:30:23;99002.06;;;1.38;100.00
77410;BME280;66481;51.332;22.804;2023-12-14T11:34:24;99000.69;;;1.30;100.00
77410;BME280;66481;51.332;22.804;2023-12-14T11:38:25;99011.72;;;1.36;100.00
77410;BME280;66481;51.332;22.804;2023-12-14T11:42:27;99001.56;;;1.29;100.00
77410;BME280;66481;51.332;22.804;2023-12-14T11:46:33;99006.34;;;1.21;100.00
77410;BME280;66481;51.332;22.804;2023-12-14T11:50:34;99007.88;;;1.25;100.00
77410;BME280;66481;51.332;22.804;2023-12-14T11:54:37;99011.09;;;1.30;100.00
77410;BME280;66481;51.332;22.804;2023-12-14T11:58:41;99017.91;;;1.33;100.00
77410;BME280;66481;51.332;22.804;2023-12-14T12:02:42;99012.06;;;1.28;100.00
77410;BME280;66481;51.332;22.804;2023-12-14T12:06:44;99017.28;;;1.28;100.00
77410;BME280;66481;51.332;22.804;2023-12-14T12:10:45;99019.19;;;1.24;100.00
77410;BME280;66481;51.332;22.804;2023-12-14T12:14:47;99006.22;;;1.23;100.00
77410;BME280;66481;51.332;22.804;2023-12-14T12:18:50;99022.09;;;1.37;100.00
77410;BME280;66481;51.332;22.804;2023-12-14T12:22:51;99024.03;;;1.51;100.00
77410;BME280;66481;51.332;22.804;2023-12-14T12:26:53;99032.75;;;1.50;100.00
77410;BME280;66481;51.332;22.804;2023-12-14T12:30:57;99025.56;;;1.55;100.00
77410;BME280;66481;51.332;22.804;2023-12-14T12:35:00;99034.94;;;1.59;100.00
77410;BME280;66481;51.332;22.804;2023-12-14T12:39:01;99035.66;;;1.63;100.00
77410;BME280;66481;51.332;22.804;2023-12-14T12:43:03;99035.66;;;1.63;100.00
77410;BME280;66481;51.332;22.804;2023-12-14T12:47:04;99027.13;;;1.59;100.00
77410;BME280;66481;51.332;22.804;2023-12-14T12:51:06;99023.38;;;1.65;100.00
77410;BME280;66481;51.332;22.804;2023-12-14T12:55:08;99035.56;;;1.64;100.00
77410;BME280;66481;51.332;22.804;2023-12-14T12:59:10;99035.41;;;1.67;100.00
77410;BME280;66481;51.332;22.804;2023-12-14T13:03:11;99034.09;;;1.59;100.00
77410;BME280;66481;51.332;22.804;2023-12-14T13:07:13;99031.78;;;1.53;100.00
77410;BME280;66481;51.332;22.804;2023-12-14T13:11:14;99041.41;;;1.50;100.00
77410;BME280;66481;51.332;22.804;2023-12-14T13:15:15;99038.97;;;1.47;100.00
77410;BME280;66481;51.332;22.804;2023-12-14T13:19:17;99037.28;;;1.46;100.00
77410;BME280;66481;51.332;22.804;2023-12-14T13:23:18;99040.09;;;1.42;100.00
77410;BME280;66481;51.332;22.804;2023-12-14T13:27:19;99048.53;;;1.47;100.00
77410;BME280;66481;51.332;22.804;2023-12-14T13:31:21;99065.59;;;1.54;100.00
77410;BME280;66481;51.332;22.804;2023-12-14T13:35:22;99065.44;;;1.57;100.00
77410;BME280;66481;51.332;22.804;2023-12-14T13:39:25;99072.00;;;1.47;100.00
77410;BME280;66481;51.332;22.804;2023-12-14T13:43:26;99077.44;;;1.42;100.00
77410;BME280;66481;51.332;22.804;2023-12-14T13:47:27;99087.00;;;1.42;100.00
77410;BME280;66481;51.332;22.804;2023-12-14T13:51:28;99087.25;;;1.37;100.00
77410;BME280;66481;51.332;22.804;2023-12-14T13:55:29;99082.38;;;1.29;100.00
77410;BME280;66481;51.332;22.804;2023-12-14T13:59:30;99101.94;;;1.38;100.00
77410;BME280;66481;51.332;22.804;2023-12-14T14:03:31;99097.88;;;1.33;100.00
77410;BME280;66481;51.332;22.804;2023-12-14T14:07:33;99103.91;;;1.33;100.00
77410;BME280;66481;51.332;22.804;2023-12-14T14:11:34;99106.06;;;1.25;100.00
77410;BME280;66481;51.332;22.804;2023-12-14T14:15:36;99107.53;;;1.30;100.00
77410;BME280;66481;51.332;22.804;2023-12-14T14:19:37;99110.91;;;1.33;100.00
77410;BME280;66481;51.332;22.804;2023-12-14T14:23:38;99130.69;;;1.37;100.00
77410;BME280;66481;51.332;22.804;2023-12-14T14:27:39;99136.28;;;1.48;100.00
77410;BME280;66481;51.332;22.804;2023-12-14T14:31:41;99135.69;;;1.41;100.00
77410;BME280;66481;51.332;22.804;2023-12-14T14:35:42;99146.06;;;1.43;100.00
77410;BME280;66481;51.332;22.804;2023-12-14T14:39:43;99149.38;;;1.46;100.00
77410;BME280;66481;51.332;22.804;2023-12-14T14:43:44;99147.19;;;1.37;100.00
77410;BME280;66481;51.332;22.804;2023-12-14T14:47:45;99153.25;;;1.38;100.00
77410;BME280;66481;51.332;22.804;2023-12-14T14:51:47;99147.31;;;1.34;100.00
77410;BME280;66481;51.332;22.804;2023-12-14T14:55:48;99153.72;;;1.27;100.00
77410;BME280;66481;51.332;22.804;2023-12-14T14:59:54;99166.56;;;1.31;100.00
77410;BME280;66481;51.332;22.804;2023-12-14T15:03:56;99172.88;;;1.26;100.00
77410;BME280;66481;51.332;22.804;2023-12-14T15:07:57;99179.09;;;1.23;100.00
77410;BME280;66481;51.332;22.804;2023-12-14T15:12:02;99181.88;;;1.19;100.00
77410;BME280;66481;51.332;22.804;2023-12-14T15:16:05;99190.34;;;1.24;100.00
77410;BME280;66481;51.332;22.804;2023-12-14T15:20:07;99194.72;;;1.23;100.00
77410;BME280;66481;51.332;22.804;2023-12-14T15:24:09;99207.75;;;1.23;100.00
77410;BME280;66481;51.332;22.804;2023-12-14T15:28:10;99205.47;;;1.16;100.00
77410;BME280;66481;51.332;22.804;2023-12-14T15:32:11;99214.84;;;1.20;100.00
77410;BME280;66481;51.332;22.804;2023-12-14T15:36:12;99213.56;;;1.09;100.00
77410;BME280;66481;51.332;22.804;2023-12-14T15:40:14;99217.13;;;1.07;100.00
77410;BME280;66481;51.332;22.804;2023-12-14T15:44:15;99230.75;;;1.13;100.00
77410;BME280;66481;51.332;22.804;2023-12-14T15:48:17;99242.22;;;1.09;100.00
77410;BME280;66481;51.332;22.804;2023-12-14T15:52:18;99236.13;;;1.09;100.00
77410;BME280;66481;51.332;22.804;2023-12-14T15:56:19;99240.78;;;1.02;100.00
77410;BME280;66481;51.332;22.804;2023-12-14T16:00:23;99250.94;;;1.08;100.00
77410;BME280;66481;51.332;22.804;2023-12-14T16:04:24;99257.06;;;1.07;100.00
77410;BME280;66481;51.332;22.804;2023-12-14T16:08:25;99247.75;;;1.02;100.00
77410;BME280;66481;51.332;22.804;2023-12-14T16:12:27;99248.66;;;1.01;100.00
77410;BME280;66481;51.332;22.804;2023-12-14T16:16:29;99254.13;;;0.94;100.00
77410;BME280;66481;51.332;22.804;2023-12-14T16:20:30;99269.56;;;0.99;100.00
77410;BME280;66481;51.332;22.804;2023-12-14T16:24:31;99272.88;;;1.03;100.00
77410;BME280;66481;51.332;22.804;2023-12-14T16:28:33;99278.41;;;0.95;100.00
77410;BME280;66481;51.332;22.804;2023-12-14T16:32:35;99284.59;;;0.92;100.00
77410;BME280;66481;51.332;22.804;2023-12-14T16:36:37;99295.84;;;0.93;100.00
77410;BME280;66481;51.332;22.804;2023-12-14T16:40:38;99295.91;;;0.91;100.00
77410;BME280;66481;51.332;22.804;2023-12-14T16:44:39;99292.41;;;0.92;100.00
77410;BME280;66481;51.332;22.804;2023-12-14T16:48:42;99300.47;;;0.86;100.00
77410;BME280;66481;51.332;22.804;2023-12-14T16:52:43;99311.69;;;0.88;100.00
77410;BME280;66481;51.332;22.804;2023-12-14T16:56:45;99302.91;;;0.91;100.00
77410;BME280;66481;51.332;22.804;2023-12-14T17:00:46;99315.25;;;0.86;100.00
77410;BME280;66481;51.332;22.804;2023-12-14T17:04:47;99330.59;;;0.93;100.00
77410;BME280;66481;51.332;22.804;2023-12-14T17:08:49;99327.22;;;0.90;100.00
77410;BME280;66481;51.332;22.804;2023-12-14T17:12:50;99332.53;;;0.88;100.00
77410;BME280;66481;51.332;22.804;2023-12-14T17:16:51;99340.84;;;0.97;100.00
77410;BME280;66481;51.332;22.804;2023-12-14T17:20:54;99347.06;;;0.94;100.00
77410;BME280;66481;51.332;22.804;2023-12-14T17:35:35;99378.25;;;0.96;100.00
77410;BME280;66481;51.332;22.804;2023-12-14T17:39:36;99379.88;;;0.98;100.00
77410;BME280;66481;51.332;22.804;2023-12-14T17:43:39;99384.25;;;0.98;100.00
77410;BME280;66481;51.332;22.804;2023-12-14T17:47:41;99391.16;;;0.99;100.00
77410;BME280;66481;51.332;22.804;2023-12-14T17:51:43;99394.63;;;0.99;100.00
77410;BME280;66481;51.332;22.804;2023-12-14T17:55:44;99398.06;;;1.00;100.00
77410;BME280;66481;51.332;22.804;2023-12-14T17:59:46;99410.28;;;0.98;100.00
77410;BME280;66481;51.332;22.804;2023-12-14T18:03:47;99412.78;;;1.01;100.00
77410;BME280;66481;51.332;22.804;2023-12-14T18:07:50;99418.91;;;1.00;100.00
77410;BME280;66481;51.332;22.804;2023-12-14T18:11:52;99419.22;;;0.92;100.00
77410;BME280;66481;51.332;22.804;2023-12-14T18:15:54;99426.81;;;0.97;100.00
77410;BME280;66481;51.332;22.804;2023-12-14T18:19:56;99442.44;;;0.97;100.00
77410;BME280;66481;51.332;22.804;2023-12-14T18:23:58;99450.03;;;1.03;100.00
77410;BME280;66481;51.332;22.804;2023-12-14T18:28:01;99460.28;;;1.07;100.00
77410;BME280;66481;51.332;22.804;2023-12-14T18:32:04;99459.69;;;1.01;100.00
77410;BME280;66481;51.332;22.804;2023-12-14T18:36:07;99462.50;;;0.94;100.00
77410;BME280;66481;51.332;22.804;2023-12-14T18:40:08;99481.25;;;1.04;100.00
77410;BME280;66481;51.332;22.804;2023-12-14T18:44:10;99475.44;;;0.98;100.00
77410;BME280;66481;51.332;22.804;2023-12-14T18:48:12;99486.53;;;1.03;100.00
77410;BME280;66481;51.332;22.804;2023-12-14T18:52:14;99489.19;;;1.01;100.00
77410;BME280;66481;51.332;22.804;2023-12-14T18:56:15;99491.84;;;1.00;100.00
77410;BME280;66481;51.332;22.804;2023-12-14T19:00:20;99503.97;;;1.01;100.00
77410;BME280;66481;51.332;22.804;2023-12-14T19:04:23;99493.34;;;1.05;100.00
77410;BME280;66481;51.332;22.804;2023-12-14T19:08:32;99511.53;;;1.07;100.00
77410;BME280;66481;51.332;22.804;2023-12-14T19:12:38;99511.94;;;0.96;100.00
77410;BME280;66481;51.332;22.804;2023-12-14T19:16:40;99518.72;;;1.00;100.00
77410;BME280;66481;51.332;22.804;2023-12-14T19:20:42;99528.19;;;1.03;100.00
77410;BME280;66481;51.332;22.804;2023-12-14T19:24:43;99535.03;;;1.05;100.00
77410;BME280;66481;51.332;22.804;2023-12-14T19:28:50;99543.78;;;1.04;100.00
77410;BME280;66481;51.332;22.804;2023-12-14T19:32:56;99537.06;;;0.99;100.00
77410;BME280;66481;51.332;22.804;2023-12-14T19:36:58;99540.38;;;1.02;100.00
77410;BME280;66481;51.332;22.804;2023-12-14T19:41:02;99546.72;;;0.95;100.00
77410;BME280;66481;51.332;22.804;2023-12-14T19:45:05;99570.78;;;1.02;100.00
77410;BME280;66481;51.332;22.804;2023-12-14T19:49:08;99578.72;;;0.99;100.00
77410;BME280;66481;51.332;22.804;2023-12-14T19:53:10;99577.19;;;0.93;100.00
77410;BME280;66481;51.332;22.804;2023-12-14T19:57:13;99584.06;;;0.96;100.00
77410;BME280;66481;51.332;22.804;2023-12-14T20:01:16;99596.03;;;1.00;100.00
77410;BME280;66481;51.332;22.804;2023-12-14T20:05:18;99600.22;;;1.04;100.00
77410;BME280;66481;51.332;22.804;2023-12-14T20:09:21;99601.31;;;0.98;100.00
77410;BME280;66481;51.332;22.804;2023-12-14T20:13:22;99610.72;;;1.02;100.00
77410;BME280;66481;51.332;22.804;2023-12-14T20:17:24;99610.19;;;0.92;100.00
77410;BME280;66481;51.332;22.804;2023-12-14T20:21:26;99624.66;;;1.01;100.00
77410;BME280;66481;51.332;22.804;2023-12-14T20:25:28;99628.88;;;1.04;100.00
77410;BME280;66481;51.332;22.804;2023-12-14T20:29:33;99638.56;;;1.00;100.00
77410;BME280;66481;51.332;22.804;2023-12-14T20:33:34;99653.41;;;0.98;100.00
77410;BME280;66481;51.332;22.804;2023-12-14T20:37:39;99654.44;;;0.94;100.00
77410;BME280;66481;51.332;22.804;2023-12-14T20:41:41;99665.31;;;1.05;100.00
77410;BME280;66481;51.332;22.804;2023-12-14T20:45:42;99665.50;;;1.01;100.00
77410;BME280;66481;51.332;22.804;2023-12-14T20:49:43;99666.63;;;0.93;100.00
77410;BME280;66481;51.332;22.804;2023-12-14T20:53:45;99669.97;;;0.97;100.00
77410;BME280;66481;51.332;22.804;2023-12-14T20:57:48;99675.38;;;0.91;100.00
77410;BME280;66481;51.332;22.804;2023-12-14T21:01:49;99674.53;;;0.90;100.00
77410;BME280;66481;51.332;22.804;2023-12-14T21:05:51;99679.84;;;0.87;100.00
77410;BME280;66481;51.332;22.804;2023-12-14T21:09:52;99686.63;;;0.91;100.00
77410;BME280;66481;51.332;22.804;2023-12-14T21:13:54;99685.16;;;0.84;100.00
77410;BME280;66481;51.332;22.804;2023-12-14T21:17:55;99686.13;;;0.82;100.00